createdAt,value
2018-08-17T00:01:14.856Z,5.53
2018-08-17T00:04:18.090Z,5.57
2018-08-17T00:07:21.335Z,5.13
2018-08-17T00:10:24.563Z,5.20
2018-08-17T00:13:27.724Z,5.10
2018-08-17T00:16:30.933Z,5.37
2018-08-17T00:19:34.185Z,4.83
2018-08-17T00:22:37.384Z,5.00
2018-08-17T00:25:40.600Z,4.63
2018-08-17T00:28:43.864Z,4.03
2018-08-17T00:31:47.114Z,5.10
2018-08-17T00:34:50.315Z,4.30
2018-08-17T00:37:58.276Z,5.27
2018-08-17T00:41:01.529Z,5.00
2018-08-17T00:44:04.834Z,5.17
2018-08-17T00:47:08.113Z,4.87
2018-08-17T00:50:11.297Z,5.60
2018-08-17T00:53:14.474Z,5.40
2018-08-17T00:56:17.782Z,5.20
2018-08-17T00:59:21.047Z,3.80
2018-08-17T01:02:24.260Z,5.40
2018-08-17T01:05:27.537Z,5.10
2018-08-17T01:08:30.760Z,5.50
2018-08-17T01:11:34.068Z,5.63
2018-08-17T01:14:37.330Z,5.40
2018-08-17T01:17:40.786Z,4.77
2018-08-17T01:20:44.054Z,4.00
2018-08-17T01:23:47.274Z,4.60
2018-08-17T01:26:50.541Z,4.70
2018-08-17T01:29:53.787Z,4.17
2018-08-17T01:32:56.974Z,4.30
2018-08-17T01:36:00.147Z,4.07
2018-08-17T01:39:04.424Z,4.93
2018-08-17T01:42:07.637Z,4.00
2018-08-17T01:45:11.181Z,4.57
2018-08-17T01:48:14.259Z,4.20
2018-08-17T01:51:17.382Z,4.23
2018-08-17T01:54:20.514Z,4.00
2018-08-17T01:57:23.795Z,4.10
2018-08-17T02:00:26.942Z,4.70
2018-08-17T02:03:30.106Z,4.33
2018-08-17T02:06:33.192Z,5.53
2018-08-17T02:09:36.330Z,3.90
2018-08-17T02:12:39.799Z,6.00
2018-08-17T02:15:42.929Z,3.67
2018-08-17T02:18:46.039Z,4.50
2018-08-17T02:21:49.137Z,3.70
2018-08-17T02:24:52.252Z,3.90
2018-08-17T02:27:55.490Z,4.07
2018-08-17T02:30:58.863Z,4.83
2018-08-17T02:34:01.958Z,5.20
2018-08-17T02:37:05.088Z,4.80
2018-08-17T02:40:08.259Z,4.17
2018-08-17T02:43:11.382Z,4.17
2018-08-17T02:46:14.560Z,5.60
2018-08-17T02:49:17.619Z,6.40
2018-08-17T02:52:20.789Z,6.10
2018-08-17T02:55:23.814Z,6.57
2018-08-17T02:58:26.987Z,9.20
2018-08-17T03:01:30.092Z,9.70
2018-08-17T03:04:33.150Z,9.53
2018-08-17T03:07:39.163Z,8.40
2018-08-17T03:10:42.263Z,8.80
2018-08-17T03:13:45.408Z,8.83
2018-08-17T03:16:48.492Z,8.77
2018-08-17T03:19:51.632Z,9.07
2018-08-17T03:22:54.701Z,9.80
2018-08-17T03:25:57.893Z,8.47
2018-08-17T03:29:01.049Z,9.50
2018-08-17T03:32:04.125Z,11.70
2018-08-17T03:35:07.249Z,9.73
2018-08-17T03:38:10.461Z,8.43
2018-08-17T03:41:13.509Z,8.10
2018-08-17T03:44:16.578Z,10.07
2018-08-17T03:47:19.685Z,7.20
2018-08-17T03:50:22.825Z,8.53
2018-08-17T03:53:25.929Z,9.10
2018-08-17T03:56:28.991Z,9.00
2018-08-17T03:59:32.040Z,8.07
2018-08-17T04:02:35.431Z,6.87
2018-08-17T04:05:38.831Z,7.60
2018-08-17T04:08:41.948Z,7.57
2018-08-17T04:11:44.991Z,6.80
2018-08-17T04:14:48.178Z,7.33
2018-08-17T04:17:51.270Z,7.43
2018-08-17T04:20:54.338Z,7.77
2018-08-17T04:23:57.519Z,6.30
2018-08-17T04:27:00.657Z,7.00
2018-08-17T04:30:04.183Z,7.60
2018-08-17T04:33:07.594Z,7.43
2018-08-17T04:36:10.691Z,6.80
2018-08-17T04:39:13.774Z,7.00
2018-08-17T04:42:16.915Z,8.20
2018-08-17T04:45:19.983Z,7.40
2018-08-17T04:48:23.098Z,6.30
2018-08-17T04:51:26.199Z,6.43
2018-08-17T04:54:29.247Z,6.47
2018-08-17T04:57:32.361Z,5.20
2018-08-17T05:00:35.479Z,6.83
2018-08-17T05:03:38.538Z,6.27
2018-08-17T05:06:41.719Z,5.93
2018-08-17T05:09:44.823Z,5.80
2018-08-17T05:12:47.959Z,6.90
2018-08-17T05:15:51.038Z,6.13
2018-08-17T05:18:54.174Z,6.33
2018-08-17T05:21:57.323Z,4.80
2018-08-17T05:25:00.405Z,6.13
2018-08-17T05:28:03.560Z,4.87
2018-08-17T05:31:06.744Z,4.10
2018-08-17T05:34:09.937Z,5.17
2018-08-17T05:37:12.988Z,4.10
2018-08-17T05:40:16.105Z,4.77
2018-08-17T05:43:19.152Z,3.67
2018-08-17T05:46:22.220Z,4.00
2018-08-17T05:49:25.408Z,4.50
2018-08-17T05:52:28.519Z,5.00
2018-08-17T05:55:31.600Z,3.70
2018-08-17T05:58:34.669Z,3.80
2018-08-17T06:01:37.685Z,3.37
2018-08-17T06:04:40.849Z,3.70
2018-08-17T06:07:43.915Z,4.43
2018-08-17T06:10:47.084Z,2.80
2018-08-17T06:13:50.173Z,4.00
2018-08-17T06:16:53.277Z,3.80
2018-08-17T06:19:56.310Z,3.10
2018-08-17T06:22:59.402Z,2.73
2018-08-17T06:26:09.385Z,3.73
2018-08-17T06:29:12.474Z,3.43
2018-08-17T06:32:15.566Z,3.30
2018-08-17T06:35:18.646Z,2.90
2018-08-17T06:38:21.729Z,2.90
2018-08-17T06:41:24.902Z,2.60
2018-08-17T06:44:30.361Z,3.37
2018-08-17T06:47:34.715Z,3.07
2018-08-17T06:50:37.890Z,3.87
2018-08-17T06:53:41.534Z,3.77
2018-08-17T06:56:44.697Z,3.90
2018-08-17T06:59:47.758Z,3.53
2018-08-17T07:02:50.822Z,3.10
2018-08-17T07:05:54.182Z,3.93
2018-08-17T07:08:57.565Z,3.60
2018-08-17T07:12:00.765Z,3.07
2018-08-17T07:15:04.157Z,3.27
2018-08-17T07:18:07.338Z,4.60
2018-08-17T07:21:10.460Z,3.00
2018-08-17T07:24:13.802Z,3.50
2018-08-17T07:27:16.807Z,4.33
2018-08-17T07:30:19.738Z,3.63
2018-08-17T07:33:22.746Z,2.50
2018-08-17T07:36:25.667Z,3.07
2018-08-17T07:39:28.585Z,3.90
2018-08-17T07:42:31.538Z,3.07
2018-08-17T07:45:34.513Z,2.77
2018-08-17T07:48:37.491Z,3.70
2018-08-17T07:51:40.391Z,5.10
2018-08-17T07:54:43.366Z,3.13
2018-08-17T07:57:46.273Z,2.47
2018-08-17T08:00:49.147Z,3.10
2018-08-17T08:03:52.042Z,3.10
2018-08-17T08:06:54.929Z,3.30
2018-08-17T08:09:57.957Z,3.80
2018-08-17T08:13:00.910Z,3.33
2018-08-17T08:16:04.322Z,3.93
2018-08-17T08:19:11.572Z,3.30
2018-08-17T08:22:14.473Z,3.53
2018-08-17T08:25:17.385Z,4.20
2018-08-17T08:28:20.547Z,4.40
2018-08-17T08:31:24.881Z,4.90
2018-08-17T08:34:28.225Z,4.40
2018-08-17T08:37:31.362Z,4.30
2018-08-17T08:40:34.668Z,4.20
2018-08-17T08:43:37.818Z,4.17
2018-08-17T08:46:41.100Z,4.60
2018-08-17T08:49:45.071Z,5.17
2018-08-17T08:52:49.312Z,5.10
2018-08-17T08:55:52.424Z,5.17
2018-08-17T08:58:56.909Z,5.03
2018-08-17T09:02:00.000Z,5.80
2018-08-17T09:05:03.161Z,5.17
2018-08-17T09:08:06.393Z,5.50
2018-08-17T09:11:09.450Z,4.90
2018-08-17T09:14:12.527Z,4.27
2018-08-17T09:17:15.656Z,6.17
2018-08-17T09:20:18.756Z,5.70
2018-08-17T09:23:21.837Z,4.83
2018-08-17T09:26:24.890Z,4.70
2018-08-17T09:29:28.057Z,5.17
2018-08-17T09:32:31.106Z,4.63
2018-08-17T09:35:34.193Z,5.07
2018-08-17T09:38:37.253Z,5.63
2018-08-17T09:41:40.358Z,6.10
2018-08-17T09:44:43.506Z,5.30
2018-08-17T09:47:46.582Z,5.13
2018-08-17T09:50:49.619Z,5.17
2018-08-17T09:53:52.807Z,5.40
2018-08-17T09:56:55.818Z,4.93
2018-08-17T09:59:58.910Z,5.20
2018-08-17T10:03:12.389Z,7.60
2018-08-17T10:06:21.334Z,6.00
2018-08-17T10:09:30.670Z,5.83
2018-08-17T10:12:33.773Z,5.27
2018-08-17T10:15:36.991Z,5.80
2018-08-17T10:18:45.036Z,5.50
2018-08-17T10:21:54.294Z,5.43
2018-08-17T10:25:04.707Z,4.70
2018-08-17T10:28:07.885Z,6.30
2018-08-17T10:31:10.505Z,5.53
2018-08-17T10:34:13.529Z,5.90
2018-08-17T10:37:16.635Z,6.00
2018-08-17T10:40:19.797Z,6.73
2018-08-17T10:43:22.884Z,7.80
2018-08-17T10:46:25.866Z,6.93
2018-08-17T10:49:28.924Z,7.13
2018-08-17T10:52:31.981Z,7.57
2018-08-17T10:55:41.863Z,5.60
2018-08-17T10:58:44.827Z,7.37
2018-08-17T11:01:47.836Z,7.00
2018-08-17T11:04:51.022Z,7.03
2018-08-17T11:07:53.981Z,7.07
2018-08-17T11:10:57.061Z,6.80
2018-08-17T11:14:00.230Z,5.53
2018-08-17T11:17:03.543Z,5.13
2018-08-17T11:20:06.542Z,5.17
2018-08-17T11:23:09.693Z,6.60
2018-08-17T11:26:19.512Z,5.60
2018-08-17T11:29:22.533Z,5.60
2018-08-17T11:32:25.724Z,5.10
2018-08-17T11:35:29.533Z,4.70
2018-08-17T11:38:32.602Z,5.80
2018-08-17T11:41:35.844Z,4.70
2018-08-17T11:44:39.076Z,4.60
2018-08-17T11:47:43.262Z,4.37
2018-08-17T11:50:48.397Z,3.83
2018-08-17T11:53:52.092Z,3.20
2018-08-17T11:56:55.246Z,3.77
2018-08-17T11:59:59.019Z,4.17
2018-08-17T12:03:03.893Z,5.10
2018-08-17T12:06:07.980Z,5.57
2018-08-17T12:09:11.049Z,5.73
2018-08-17T12:12:14.034Z,5.80
2018-08-17T12:15:17.076Z,5.67
2018-08-17T12:18:20.158Z,8.43
2018-08-17T12:21:23.241Z,6.93
2018-08-17T12:24:26.371Z,8.40
2018-08-17T12:27:29.486Z,8.70
2018-08-17T12:30:32.498Z,11.50
2018-08-17T12:33:35.562Z,10.93
2018-08-17T12:36:38.702Z,10.50
2018-08-17T12:39:41.752Z,11.17
2018-08-17T12:42:44.742Z,9.50
2018-08-17T12:45:47.780Z,8.07
2018-08-17T12:48:50.810Z,7.30
2018-08-17T12:51:53.915Z,6.10
2018-08-17T12:54:56.552Z,5.57
2018-08-17T12:57:59.623Z,5.33
2018-08-17T13:01:02.671Z,4.77
2018-08-17T13:04:05.754Z,6.20
2018-08-17T13:07:08.957Z,33.70
2018-08-17T13:10:11.982Z,7.47
2018-08-17T13:13:15.039Z,4.07
2018-08-17T13:16:17.988Z,5.80
2018-08-17T13:19:21.030Z,7.63
2018-08-17T13:22:24.230Z,5.80
2018-08-17T13:25:27.235Z,7.70
2018-08-17T13:28:30.364Z,7.90
2018-08-17T13:31:33.469Z,8.33
2018-08-17T13:34:36.554Z,7.87
2018-08-17T13:37:39.869Z,8.57
2018-08-17T13:40:42.859Z,11.00
2018-08-17T13:43:45.946Z,8.13
2018-08-17T13:46:48.990Z,6.97
2018-08-17T13:49:52.062Z,8.43
2018-08-17T13:52:55.378Z,8.60
2018-08-17T13:55:58.420Z,8.37
2018-08-17T13:59:01.519Z,8.20
2018-08-17T14:02:04.691Z,9.57
2018-08-17T14:05:09.527Z,9.50
2018-08-17T14:08:12.705Z,7.33
2018-08-17T14:11:15.707Z,7.47
2018-08-17T14:14:18.807Z,6.77
2018-08-17T14:17:22.021Z,6.87
2018-08-17T14:20:25.029Z,5.43
2018-08-17T14:23:28.125Z,5.57
2018-08-17T14:26:31.197Z,5.80
2018-08-17T14:29:34.293Z,3.30
2018-08-17T14:32:37.338Z,3.10
2018-08-17T14:35:40.413Z,2.50
2018-08-17T14:38:43.479Z,3.63
2018-08-17T14:41:56.956Z,3.80
2018-08-17T14:45:00.078Z,3.20
2018-08-17T14:48:04.478Z,4.00
2018-08-17T14:51:08.141Z,4.83
2018-08-17T14:54:11.595Z,4.50
2018-08-17T14:57:15.034Z,3.57
2018-08-17T15:00:18.437Z,3.70
2018-08-17T15:03:22.705Z,3.77
2018-08-17T15:06:26.391Z,4.23
2018-08-17T15:09:30.815Z,3.23
2018-08-17T15:12:34.527Z,4.60
2018-08-17T15:15:37.642Z,2.47
2018-08-17T15:18:41.241Z,2.90
2018-08-17T15:21:44.548Z,2.20
2018-08-17T15:24:48.496Z,2.50
2018-08-17T15:27:52.840Z,2.50
2018-08-17T15:30:56.661Z,2.50
2018-08-17T15:34:00.938Z,1.90
2018-08-17T15:37:04.708Z,2.00
2018-08-17T15:40:10.845Z,1.87
2018-08-17T15:43:17.297Z,1.60
2018-08-17T15:46:21.169Z,1.97
2018-08-17T15:49:30.201Z,4.60
2018-08-17T15:52:33.736Z,3.67
2018-08-17T15:55:38.135Z,2.97
2018-08-17T15:58:41.716Z,2.93
2018-08-17T16:01:45.177Z,2.67
2018-08-17T16:04:49.335Z,2.33
2018-08-17T16:07:52.960Z,3.50
2018-08-17T16:10:56.148Z,2.20
2018-08-17T16:13:59.619Z,2.37
2018-08-17T16:17:03.112Z,2.40
2018-08-17T16:20:09.264Z,2.90
2018-08-17T16:23:13.645Z,3.10
2018-08-17T16:26:16.820Z,2.43
2018-08-17T16:29:20.003Z,2.70
2018-08-17T16:32:23.075Z,2.20
2018-08-17T16:35:26.301Z,2.07
2018-08-17T16:38:29.612Z,3.90
2018-08-17T16:41:32.722Z,3.20
2018-08-17T16:44:35.843Z,2.07
2018-08-17T16:47:39.464Z,2.67
2018-08-17T16:50:42.531Z,2.57
2018-08-17T16:53:45.604Z,1.77
2018-08-17T16:56:48.851Z,1.60
2018-08-17T16:59:52.269Z,2.13
2018-08-17T17:02:55.364Z,1.90
2018-08-17T17:06:01.994Z,2.07
2018-08-17T17:09:07.752Z,2.73
2018-08-17T17:12:17.486Z,2.10
2018-08-17T17:15:20.676Z,2.67
2018-08-17T17:18:23.722Z,2.60
2018-08-17T17:21:26.770Z,1.90
2018-08-17T17:24:29.822Z,2.10
2018-08-17T17:27:33.237Z,1.80
2018-08-17T17:30:43.670Z,2.07
2018-08-17T17:33:46.794Z,2.07
2018-08-17T17:36:49.883Z,1.37
2018-08-17T17:39:52.945Z,2.77
2018-08-17T17:42:56.085Z,2.70
2018-08-17T17:45:59.191Z,2.80
2018-08-17T17:49:02.271Z,4.17
2018-08-17T17:52:05.361Z,2.13
2018-08-17T17:55:08.569Z,1.73
2018-08-17T17:58:11.863Z,1.60
2018-08-17T18:01:14.867Z,2.00
2018-08-17T18:04:17.952Z,2.03
2018-08-17T18:07:21.406Z,4.87
2018-08-17T18:10:24.562Z,2.00
2018-08-17T18:13:28.330Z,4.60
2018-08-17T18:16:31.438Z,2.13
2018-08-17T18:19:34.939Z,1.47
2018-08-17T18:22:38.797Z,2.60
2018-08-17T18:25:42.363Z,3.93
2018-08-17T18:28:45.735Z,8.37
2018-08-17T18:31:49.264Z,2.80
2018-08-17T18:34:52.714Z,3.50
2018-08-17T18:37:56.811Z,1.33
2018-08-17T18:41:00.223Z,1.60
2018-08-17T18:44:03.413Z,1.60
2018-08-17T18:47:06.466Z,1.40
2018-08-17T18:50:09.614Z,1.47
2018-08-17T18:53:12.776Z,1.43
2018-08-17T18:56:16.260Z,1.47
2018-08-17T18:59:19.628Z,1.90
2018-08-17T19:02:22.876Z,1.80
2018-08-17T19:05:26.163Z,1.50
2018-08-17T19:08:29.583Z,1.50
2018-08-17T19:11:34.274Z,1.90
2018-08-17T19:14:45.257Z,1.90
2018-08-17T19:17:48.846Z,1.70
2018-08-17T19:20:52.332Z,1.80
2018-08-17T19:23:55.886Z,1.20
2018-08-17T19:27:00.017Z,1.40
2018-08-17T19:30:11.094Z,1.60
2018-08-17T19:33:14.533Z,1.73
2018-08-17T19:36:17.993Z,2.43
2018-08-17T19:39:25.906Z,2.03
2018-08-17T19:42:29.282Z,1.80
2018-08-17T19:45:33.073Z,5.50
2018-08-17T19:48:36.668Z,2.10
2018-08-17T19:51:40.199Z,1.43
2018-08-17T19:54:43.495Z,1.60
2018-08-17T19:57:46.555Z,1.57
2018-08-17T20:00:49.805Z,2.00
2018-08-17T20:03:53.579Z,1.70
2018-08-17T20:06:57.302Z,1.67
2018-08-17T20:10:00.956Z,1.57
2018-08-17T20:13:04.531Z,4.33
2018-08-17T20:16:23.941Z,3.17
2018-08-17T20:19:35.583Z,1.43
2018-08-17T20:22:39.008Z,2.13
2018-08-17T20:25:42.275Z,2.27
2018-08-17T20:28:46.060Z,1.20
2018-08-17T20:31:49.328Z,1.33
2018-08-17T20:34:52.953Z,2.33
2018-08-17T20:37:56.424Z,1.20
2018-08-17T20:41:00.454Z,1.50
2018-08-17T20:44:04.541Z,1.90
2018-08-17T20:47:14.772Z,1.20
2018-08-17T20:50:19.180Z,1.27
2018-08-17T20:53:22.787Z,1.30
2018-08-17T20:56:27.012Z,1.40
2018-08-17T20:59:31.111Z,1.40
2018-08-17T21:02:34.465Z,4.13
2018-08-17T21:05:37.697Z,1.53
2018-08-17T21:08:40.842Z,1.67
2018-08-17T21:11:44.100Z,1.40
2018-08-17T21:14:47.285Z,4.97
2018-08-17T21:17:51.433Z,1.73
2018-08-17T21:20:54.631Z,1.30
2018-08-17T21:23:57.909Z,1.80
2018-08-17T21:27:01.923Z,1.20
2018-08-17T21:30:06.466Z,1.47
2018-08-17T21:33:12.208Z,1.30
2018-08-17T21:36:29.643Z,1.80
2018-08-17T21:39:36.021Z,1.10
2018-08-17T21:42:39.215Z,1.47
2018-08-17T21:45:44.841Z,1.40
2018-08-17T21:48:48.105Z,1.10
2018-08-17T21:52:02.405Z,1.40
2018-08-17T21:55:05.671Z,2.03
2018-08-17T21:58:08.842Z,1.20
2018-08-17T22:01:12.013Z,1.00
2018-08-17T22:04:15.276Z,1.20
2018-08-17T22:07:20.728Z,1.40
2018-08-17T22:10:23.979Z,1.57
2018-08-17T22:13:35.144Z,1.27
2018-08-17T22:16:38.341Z,1.27
2018-08-17T22:19:42.446Z,1.00
2018-08-17T22:22:45.685Z,1.10
2018-08-17T22:25:48.974Z,1.20
2018-08-17T22:28:52.337Z,1.50
2018-08-17T22:31:55.480Z,1.10
2018-08-17T22:34:58.725Z,1.87
2018-08-17T22:38:02.022Z,1.20
2018-08-17T22:41:07.068Z,1.43
2018-08-17T22:44:15.788Z,2.50
2018-08-17T22:47:25.086Z,1.50
2018-08-17T22:50:28.266Z,1.40
2018-08-17T22:53:31.442Z,1.60
2018-08-17T22:56:34.674Z,1.20
2018-08-17T22:59:37.932Z,1.40
2018-08-17T23:02:42.278Z,1.67
2018-08-17T23:05:45.479Z,1.20
2018-08-17T23:08:48.741Z,1.50
2018-08-17T23:11:51.881Z,1.90
2018-08-17T23:14:55.155Z,1.50
2018-08-17T23:17:59.883Z,1.70
2018-08-17T23:21:03.100Z,1.80
2018-08-17T23:24:06.666Z,1.17
2018-08-17T23:27:09.828Z,1.37
2018-08-17T23:30:13.160Z,1.50
2018-08-17T23:33:16.354Z,2.33
2018-08-17T23:36:19.637Z,1.87
2018-08-17T23:39:22.910Z,1.43
2018-08-17T23:42:26.154Z,1.57
2018-08-17T23:45:29.359Z,2.37
2018-08-17T23:48:32.550Z,1.60
2018-08-17T23:51:35.711Z,2.00
2018-08-17T23:54:39.080Z,1.13
2018-08-17T23:57:42.394Z,2.37
